Time;durP1;ratioP1;P1;durP2;ratioP2;P2;SDS_P1;SDS_P2;PMS_P1;PMS_P2;Temp;Humidity;BMP_temperature;BMP_pressure;BME280_temperature;BME280_humidity;BME280_pressure;Samples;Min_cycle;Max_cycle;Signal;HPM_P1;HPM_P2
2022/12/14 00:00:45;;;;;;;49.00;22.20;;;-7.00;99.90;;;;;;5057221;28;20550;-88
2022/12/14 00:03:12;;;;;;;49.57;22.17;;;-7.00;99.90;;;;;;5056970;28;20668;-89
2022/12/14 00:05:38;;;;;;;37.77;17.17;;;-7.10;99.90;;;;;;5057354;28;20615;-89
2022/12/14 00:08:05;;;;;;;40.17;17.93;;;-7.10;99.90;;;;;;5057059;28;20195;-89
2022/12/14 00:10:32;;;;;;;36.77;15.30;;;-7.20;99.90;;;;;;5075269;28;20195;-89
2022/12/14 00:12:58;;;;;;;35.33;15.83;;;-7.20;99.90;;;;;;5057345;28;20181;-90
2022/12/14 00:15:24;;;;;;;31.80;14.20;;;-7.40;99.90;;;;;;5074939;28;20177;-89
2022/12/14 00:17:50;;;;;;;30.47;13.77;;;-7.30;99.90;;;;;;5057203;28;20181;-89
2022/12/14 00:20:15;;;;;;;33.73;14.70;;;-7.40;99.90;;;;;;5057323;28;20180;-89
2022/12/14 00:22:41;;;;;;;37.00;14.83;;;-7.40;99.90;;;;;;5056727;28;20213;-89
2022/12/14 00:25:07;;;;;;;32.73;14.30;;;-7.30;99.90;;;;;;5074734;28;20173;-89
2022/12/14 00:27:33;;;;;;;33.13;13.93;;;-7.30;99.90;;;;;;5056919;28;20177;-89
2022/12/14 00:29:58;;;;;;;26.20;12.97;;;-7.30;99.90;;;;;;5056908;28;20197;-88
2022/12/14 00:32:24;;;;;;;31.83;13.70;;;-7.30;99.90;;;;;;5056657;28;20182;-88
2022/12/14 00:34:50;;;;;;;24.57;11.93;;;-7.30;99.90;;;;;;5056509;28;20591;-88
2022/12/14 00:37:15;;;;;;;33.63;13.37;;;-7.30;99.90;;;;;;5056534;28;20595;-88
2022/12/14 00:39:41;;;;;;;37.10;14.20;;;-7.30;99.90;;;;;;5056985;28;20219;-88
2022/12/14 00:42:07;;;;;;;32.40;14.00;;;-7.30;99.90;;;;;;5057032;28;20250;-89
2022/12/14 00:44:33;;;;;;;35.37;15.37;;;-7.40;99.90;;;;;;5047153;28;20206;-89
2022/12/14 00:46:59;;;;;;;28.47;12.93;;;-7.30;99.90;;;;;;5036896;28;20272;-89
2022/12/14 00:49:25;;;;;;;25.23;11.87;;;-7.30;99.90;;;;;;5037357;28;20207;-89
2022/12/14 00:51:50;;;;;;;27.23;12.47;;;-7.30;99.90;;;;;;5036710;28;20268;-90
2022/12/14 00:54:16;;;;;;;20.37;10.70;;;-7.30;99.90;;;;;;5036614;28;20193;-88
2022/12/14 00:56:42;;;;;;;22.90;11.37;;;-7.30;99.90;;;;;;5037076;28;20265;-89
2022/12/14 00:59:07;;;;;;;22.93;11.10;;;-7.30;99.90;;;;;;5036401;28;20240;-89
2022/12/14 01:01:33;;;;;;;25.07;12.60;;;-7.30;99.90;;;;;;5036723;28;20186;-88
2022/12/14 01:04:18;;;;;;;28.93;11.87;;;-7.30;99.90;;;;;;5036339;28;20181;-88
2022/12/14 01:06:48;;;;;;;21.83;10.47;;;-7.30;99.90;;;;;;5039436;28;20216;-88
2022/12/14 01:09:15;;;;;;;27.30;11.83;;;-7.30;99.90;;;;;;5055234;28;20196;-88
2022/12/14 01:11:42;;;;;;;26.80;11.00;;;-7.40;99.90;;;;;;5056370;28;20174;-89
2022/12/14 01:14:10;;;;;;;26.63;11.43;;;-7.40;99.90;;;;;;5056371;28;20271;-89
2022/12/14 01:16:36;;;;;;;23.00;11.00;;;-7.40;99.90;;;;;;5056519;28;20570;-89
2022/12/14 01:19:04;;;;;;;22.03;11.17;;;-7.30;99.90;;;;;;5060684;28;20276;-90
2022/12/14 01:21:29;;;;;;;21.43;9.70;;;-7.40;99.90;;;;;;5045300;28;20193;-89
2022/12/14 01:23:57;;;;;;;22.63;10.97;;;-7.60;99.90;;;;;;5042757;28;20197;-88
2022/12/14 01:26:24;;;;;;;18.13;9.43;;;-7.60;99.90;;;;;;5042607;28;20186;-90
2022/12/14 01:28:54;;;;;;;20.27;10.40;;;-7.60;99.90;;;;;;5043137;28;20190;-89
2022/12/14 01:31:29;;;;;;;21.83;10.63;;;-7.60;99.90;;;;;;5043362;28;20181;-90
2022/12/14 01:33:55;;;;;;;17.57;9.80;;;-7.50;99.90;;;;;;5060920;28;20174;-89
2022/12/14 01:36:26;;;;;;;21.27;10.40;;;-7.60;99.90;;;;;;5042816;28;20181;-89
2022/12/14 01:38:55;;;;;;;17.53;9.27;;;-7.50;99.90;;;;;;5051861;28;20658;-88
2022/12/14 01:41:28;;;;;;;22.67;10.03;;;-7.50;99.90;;;;;;5062578;28;20230;-89
2022/12/14 01:44:07;;;;;;;20.57;9.67;;;-7.60;99.90;;;;;;5062818;28;20189;-89
2022/12/14 01:46:35;;;;;;;20.03;9.47;;;-7.60;99.90;;;;;;5062520;28;20170;-89
2022/12/14 01:49:15;;;;;;;18.83;9.43;;;-7.70;99.90;;;;;;5062942;28;20177;-90
2022/12/14 01:51:45;;;;;;;23.17;10.30;;;-7.80;99.90;;;;;;5062697;28;20169;-89
2022/12/14 01:54:12;;;;;;;20.07;9.50;;;-7.70;99.90;;;;;;5062308;28;20172;-89
2022/12/14 01:56:41;;;;;;;18.50;9.93;;;-7.80;99.90;;;;;;5062538;28;20161;-89
2022/12/14 01:59:12;;;;;;;18.23;9.60;;;-7.80;99.90;;;;;;5076627;28;20299;-90
2022/12/14 02:01:38;;;;;;;26.87;10.63;;;-7.70;99.90;;;;;;5079214;28;20177;-90
2022/12/14 02:04:04;;;;;;;20.33;10.27;;;-7.70;99.90;;;;;;5079386;28;20192;-89
2022/12/14 02:06:35;;;;;;;19.10;9.90;;;-7.70;99.90;;;;;;5079196;28;20208;-88
2022/12/14 02:09:06;;;;;;;16.57;9.73;;;-7.70;99.90;;;;;;5078993;28;20180;-88
2022/12/14 02:11:41;;;;;;;16.30;9.30;;;-7.70;99.90;;;;;;5079328;28;20173;-87
2022/12/14 02:14:07;;;;;;;18.90;8.67;;;-7.60;99.90;;;;;;5079255;28;20242;-88
2022/12/14 02:16:33;;;;;;;19.40;9.10;;;-7.60;99.90;;;;;;5080210;28;20181;-89
2022/12/14 02:18:59;;;;;;;23.93;10.20;;;-7.70;99.90;;;;;;5079246;28;20180;-89
2022/12/14 02:21:54;;;;;;;25.33;10.27;;;-7.70;99.90;;;;;;5079219;28;20177;-88
2022/12/14 02:24:49;;;;;;;20.20;8.67;;;-7.60;99.90;;;;;;5078788;28;20741;-88
2022/12/14 02:27:52;;;;;;;15.67;8.30;;;-7.70;99.90;;;;;;5079059;28;20683;-89
2022/12/14 02:30:23;;;;;;;19.83;10.30;;;-7.70;99.90;;;;;;5076130;28;20201;-90
2022/12/14 02:32:58;;;;;;;16.50;9.00;;;-7.80;99.90;;;;;;5076140;28;20172;-89
2022/12/14 02:35:24;;;;;;;22.03;9.60;;;-7.90;99.90;;;;;;5075900;28;20169;-90
2022/12/14 02:38:14;;;;;;;19.50;9.00;;;-8.00;99.90;;;;;;5077022;28;20603;-89
2022/12/14 02:40:52;;;;;;;18.13;8.30;;;-8.00;99.90;;;;;;5097210;28;20243;-89
2022/12/14 02:43:39;;;;;;;18.33;9.13;;;-8.10;99.90;;;;;;5078957;28;20208;-89
2022/12/14 02:46:28;;;;;;;20.77;9.13;;;-8.00;99.90;;;;;;5096936;28;20251;-90
2022/12/14 02:49:17;;;;;;;23.07;9.53;;;-7.90;99.90;;;;;;5079457;28;20202;-89
2022/12/14 02:51:54;;;;;;;19.67;8.53;;;-8.00;99.90;;;;;;5073742;28;20192;-89
2022/12/14 02:54:37;;;;;;;16.80;8.73;;;-8.00;99.90;;;;;;5048514;28;20185;-88
2022/12/14 02:57:14;;;;;;;18.50;9.07;;;-8.00;99.90;;;;;;5057720;28;20189;-90
2022/12/14 02:59:41;;;;;;;21.03;9.37;;;-8.10;99.90;;;;;;5040427;28;20190;-88
2022/12/14 03:02:08;;;;;;;16.93;9.60;;;-8.20;99.90;;;;;;5039204;28;20304;-89
2022/12/14 03:04:44;;;;;;;16.90;9.00;;;-8.20;99.90;;;;;;5038485;28;20186;-89
2022/12/14 03:07:32;;;;;;;18.77;8.87;;;-8.30;99.90;;;;;;5038763;28;20173;-89
2022/12/14 03:10:13;;;;;;;18.00;8.67;;;-8.30;99.90;;;;;;5057068;28;20238;-90
2022/12/14 03:12:44;;;;;;;18.47;8.73;;;-8.30;99.90;;;;;;5058564;28;20318;-89
2022/12/14 03:15:14;;;;;;;14.07;8.57;;;-8.30;99.90;;;;;;5058498;28;20608;-89
2022/12/14 03:17:43;;;;;;;19.87;9.10;;;-8.30;99.90;;;;;;5476951;22;20589;-89
2022/12/14 03:20:17;;;;;;;17.23;9.50;;;-8.30;99.90;;;;;;5058619;28;20192;-89
2022/12/14 03:22:51;;;;;;;17.47;8.93;;;-8.40;99.90;;;;;;5057730;28;20259;-89
2022/12/14 03:25:33;;;;;;;18.47;8.27;;;-8.40;99.90;;;;;;5075981;28;20191;-89
2022/12/14 03:28:14;;;;;;;18.20;8.83;;;-8.40;99.90;;;;;;5058350;28;20542;-89
2022/12/14 03:30:41;;;;;;;20.07;8.67;;;-8.40;99.90;;;;;;5058441;28;20263;-89
2022/12/14 03:33:14;;;;;;;16.87;9.30;;;-8.40;99.90;;;;;;5057965;28;20181;-89
2022/12/14 03:35:53;;;;;;;20.53;9.37;;;-8.40;99.90;;;;;;5057991;28;20180;-89
2022/12/14 03:38:35;;;;;;;23.00;10.00;;;-8.40;99.90;;;;;;5057968;28;20185;-91
2022/12/14 03:41:27;;;;;;;16.60;8.83;;;-8.40;99.90;;;;;;5057754;28;20172;-91
2022/12/14 03:43:53;;;;;;;18.93;8.27;;;-8.40;99.90;;;;;;5057861;28;20209;-90
2022/12/14 03:46:57;;;;;;;20.27;9.70;;;-8.40;99.90;;;;;;5075305;28;20174;-91
2022/12/14 03:49:29;;;;;;;17.57;8.57;;;-8.50;99.90;;;;;;5017474;28;20192;-90
2022/12/14 03:52:04;;;;;;;16.17;8.57;;;-8.50;99.90;;;;;;5055650;28;20194;-90
2022/12/14 03:54:32;;;;;;;18.73;9.33;;;-8.50;99.90;;;;;;5074985;28;20251;-91
2022/12/14 03:57:13;;;;;;;19.80;9.93;;;-8.50;99.90;;;;;;5056839;28;20317;-87
2022/12/14 04:00:11;;;;;;;15.17;7.70;;;-8.50;99.90;;;;;;5073894;28;20689;-88
2022/12/14 04:02:48;;;;;;;17.87;9.00;;;-8.50;99.90;;;;;;5073768;28;20259;-88
2022/12/14 04:05:23;;;;;;;16.17;8.80;;;-8.60;99.90;;;;;;5075282;28;20168;-92
2022/12/14 04:08:14;;;;;;;16.43;9.33;;;-8.60;99.90;;;;;;5073188;28;20191;-91
2022/12/14 04:19:19;;;;;;;16.20;8.67;;;-8.40;99.90;;;;;;5055368;28;20188;-89
2022/12/14 04:21:55;;;;;;;16.33;8.77;;;-8.50;99.90;;;;;;5054859;28;20173;-89
2022/12/14 04:27:12;;;;;;;19.07;9.13;;;-8.50;99.90;;;;;;5054983;28;20195;-91
2022/12/14 04:29:55;;;;;;;22.30;9.13;;;-8.50;99.90;;;;;;5036532;28;20196;-89
2022/12/14 04:32:29;;;;;;;18.10;9.07;;;-8.50;99.90;;;;;;5037216;28;20174;-88
2022/12/14 04:35:16;;;;;;;17.10;8.90;;;-8.50;99.90;;;;;;5037067;28;20592;-89
2022/12/14 04:37:46;;;;;;;15.73;7.97;;;-8.40;99.90;;;;;;5037081;28;20188;-89
2022/12/14 04:40:26;;;;;;;18.37;9.17;;;-8.40;99.90;;;;;;5036708;28;20180;-89
2022/12/14 04:43:00;;;;;;;15.80;8.50;;;-8.50;99.90;;;;;;5036737;28;20215;-89
2022/12/14 04:45:34;;;;;;;16.47;8.40;;;-8.50;99.90;;;;;;5036717;28;20172;-89
2022/12/14 04:48:33;;;;;;;19.93;9.47;;;-8.40;99.90;;;;;;5036672;28;20174;-89
2022/12/14 04:51:26;;;;;;;19.03;9.00;;;-8.50;99.90;;;;;;5036613;28;20246;-88
2022/12/14 04:54:02;;;;;;;16.60;8.20;;;-8.60;99.90;;;;;;5036160;28;20253;-88
2022/12/14 04:56:52;;;;;;;18.37;9.00;;;-8.60;99.90;;;;;;5036608;28;20174;-89
2022/12/14 04:59:17;;;;;;;19.77;9.33;;;-8.60;99.90;;;;;;5053562;28;20178;-88
2022/12/14 05:01:55;;;;;;;15.90;7.57;;;-8.60;99.90;;;;;;5036103;28;20184;-88
2022/12/14 05:04:42;;;;;;;19.00;8.30;;;-8.70;99.90;;;;;;5036199;28;20170;-88
2022/12/14 05:07:52;;;;;;;16.47;8.23;;;-8.60;99.90;;;;;;5054366;28;20163;-89
2022/12/14 05:10:23;;;;;;;19.33;9.03;;;-8.70;99.90;;;;;;4990614;28;20540;-91
2022/12/14 05:13:04;;;;;;;15.93;7.60;;;-8.80;99.90;;;;;;5036737;28;20186;-91
2022/12/14 05:15:34;;;;;;;16.17;8.77;;;-8.90;99.90;;;;;;5052881;28;20178;-91
2022/12/14 05:18:02;;;;;;;15.77;8.23;;;-8.90;99.90;;;;;;5047403;28;20284;-91
2022/12/14 05:20:28;;;;;;;18.33;8.20;;;-8.90;99.90;;;;;;5056435;28;20205;-90
2022/12/14 05:22:54;;;;;;;16.73;8.80;;;-8.90;99.90;;;;;;5056269;28;20577;-90
2022/12/14 05:25:19;;;;;;;17.17;9.20;;;-8.90;99.90;;;;;;5056234;28;20180;-90
2022/12/14 05:27:45;;;;;;;15.27;8.00;;;-8.80;99.90;;;;;;5051676;28;20203;-90
2022/12/14 05:30:11;;;;;;;15.53;7.83;;;-8.90;99.90;;;;;;5056269;28;20183;-91
2022/12/14 05:32:38;;;;;;;17.07;7.83;;;-9.00;99.90;;;;;;5055761;28;20227;-91
2022/12/14 05:35:05;;;;;;;19.80;8.83;;;-9.00;99.90;;;;;;5056295;28;20180;-91
2022/12/14 05:37:30;;;;;;;15.43;8.53;;;-9.10;99.90;;;;;;5056707;28;20187;-91
2022/12/14 05:39:56;;;;;;;19.77;8.30;;;-9.00;99.90;;;;;;5056072;28;20255;-88
2022/12/14 05:42:22;;;;;;;17.70;8.57;;;-9.00;99.90;;;;;;5056180;28;20223;-89
2022/12/14 05:44:47;;;;;;;15.47;7.63;;;-9.00;99.90;;;;;;5056054;28;20614;-89
2022/12/14 05:47:14;;;;;;;20.83;8.87;;;-9.00;99.90;;;;;;5055734;28;20233;-88
2022/12/14 05:49:39;;;;;;;14.87;7.97;;;-8.90;99.90;;;;;;5057070;28;20274;-89
2022/12/14 05:52:05;;;;;;;15.60;8.23;;;-8.80;99.90;;;;;;5056403;28;20592;-89
2022/12/14 05:54:31;;;;;;;22.47;9.30;;;-8.90;99.90;;;;;;5056726;28;20176;-88
2022/12/14 05:56:57;;;;;;;16.50;8.90;;;-8.90;99.90;;;;;;5060098;28;20225;-88
2022/12/14 05:59:23;;;;;;;16.33;7.93;;;-9.00;99.90;;;;;;5059483;28;20314;-88
2022/12/14 06:01:49;;;;;;;17.23;8.00;;;-9.00;99.90;;;;;;5061812;28;20180;-88
2022/12/14 06:04:16;;;;;;;19.60;8.37;;;-9.00;99.90;;;;;;5056805;28;20184;-89
2022/12/14 06:06:42;;;;;;;16.90;8.70;;;-9.00;99.90;;;;;;5066045;28;20177;-90
2022/12/14 06:09:09;;;;;;;19.73;8.70;;;-8.90;99.90;;;;;;5054202;28;20231;-89
2022/12/14 06:11:40;;;;;;;17.67;8.43;;;-8.90;99.90;;;;;;5080169;28;20173;-90
2022/12/14 06:14:07;;;;;;;17.67;9.70;;;-8.90;99.90;;;;;;5064332;28;20196;-89
2022/12/14 06:16:34;;;;;;;20.70;11.30;;;-8.90;99.90;;;;;;5066104;28;20251;-88
2022/12/14 06:19:03;;;;;;;17.07;9.77;;;-8.90;99.90;;;;;;5063930;28;20237;-90
2022/12/14 06:21:31;;;;;;;17.57;8.87;;;-8.90;99.90;;;;;;5063708;28;20304;-89
2022/12/14 06:23:58;;;;;;;18.53;8.53;;;-8.90;99.90;;;;;;5063037;28;20218;-90
2022/12/14 06:26:25;;;;;;;21.87;8.50;;;-8.90;99.90;;;;;;5059508;28;20282;-90
2022/12/14 06:28:51;;;;;;;18.90;9.70;;;-8.90;99.90;;;;;;5060228;28;20627;-89
2022/12/14 06:31:20;;;;;;;22.07;9.90;;;-9.00;99.90;;;;;;5059506;28;20222;-90
2022/12/14 06:33:46;;;;;;;26.17;9.77;;;-8.90;99.90;;;;;;5059784;28;20175;-90
2022/12/14 06:36:23;;;;;;;19.60;8.93;;;-9.00;99.90;;;;;;5077839;28;20512;-90
2022/12/14 06:39:01;;;;;;;16.43;8.37;;;-9.00;99.90;;;;;;5054516;28;20620;-89
2022/12/14 06:41:28;;;;;;;16.67;8.90;;;-9.00;99.90;;;;;;5059744;28;20212;-90
2022/12/14 06:43:54;;;;;;;15.00;8.03;;;-9.00;99.90;;;;;;5059409;28;20205;-89
2022/12/14 06:46:22;;;;;;;17.23;8.73;;;-9.00;99.90;;;;;;5058965;28;20185;-89
2022/12/14 06:48:52;;;;;;;15.93;8.93;;;-8.90;99.90;;;;;;5059547;28;20603;-89
2022/12/14 06:51:20;;;;;;;19.90;9.13;;;-9.00;99.90;;;;;;5059246;28;20204;-89
2022/12/14 06:53:50;;;;;;;15.70;8.27;;;-9.00;99.90;;;;;;5059329;28;20177;-89
2022/12/14 06:56:17;;;;;;;19.10;8.80;;;-9.00;99.90;;;;;;5059817;28;20192;-88
2022/12/14 06:58:43;;;;;;;19.13;8.97;;;-9.00;99.90;;;;;;5062798;28;20239;-89
2022/12/14 07:01:14;;;;;;;22.60;9.50;;;-9.00;99.90;;;;;;5059754;28;20245;-89
2022/12/14 07:03:41;;;;;;;21.53;10.03;;;-9.10;99.90;;;;;;5058770;28;20213;-89
2022/12/14 07:06:08;;;;;;;21.07;10.43;;;-9.00;99.90;;;;;;5059411;28;20285;-91
2022/12/14 07:08:36;;;;;;;18.37;9.73;;;-9.00;99.90;;;;;;5061493;28;20544;-89
2022/12/14 07:11:04;;;;;;;19.13;9.27;;;-8.90;99.90;;;;;;5061735;28;20185;-90
2022/12/14 07:13:30;;;;;;;21.80;11.07;;;-8.80;99.90;;;;;;5071394;28;20172;-89
2022/12/14 07:15:57;;;;;;;27.83;15.73;;;-8.90;99.90;;;;;;5070945;28;20182;-89
2022/12/14 07:18:23;;;;;;;20.50;9.67;;;-8.90;99.90;;;;;;5070934;28;20212;-90
2022/12/14 07:21:03;;;;;;;19.60;10.07;;;-8.80;99.90;;;;;;5060374;28;20181;-90
2022/12/14 07:23:30;;;;;;;21.03;10.43;;;-8.80;99.90;;;;;;5059911;28;20648;-91
2022/12/14 07:26:01;;;;;;;19.90;10.83;;;-8.90;99.90;;;;;;5059022;28;20173;-90
2022/12/14 07:28:27;;;;;;;19.47;9.03;;;-8.80;99.90;;;;;;5058418;28;20215;-90
2022/12/14 07:30:57;;;;;;;20.50;9.60;;;-8.70;99.90;;;;;;5059396;28;20186;-90
2022/12/14 07:33:24;;;;;;;15.93;8.60;;;-8.80;99.90;;;;;;5058403;28;20250;-90
2022/12/14 07:35:50;;;;;;;15.40;8.67;;;-8.80;99.90;;;;;;5058462;28;20188;-90
2022/12/14 07:38:16;;;;;;;16.53;8.73;;;-8.70;99.90;;;;;;5058688;28;20192;-90
2022/12/14 07:40:42;;;;;;;15.73;8.43;;;-8.70;99.90;;;;;;5075369;28;20181;-90
2022/12/14 07:43:09;;;;;;;15.63;8.20;;;-8.70;99.90;;;;;;5075961;28;20639;-92
2022/12/14 07:45:35;;;;;;;20.00;8.77;;;-8.70;99.90;;;;;;5058743;28;20173;-90
2022/12/14 07:48:01;;;;;;;44.40;17.73;;;-8.70;99.90;;;;;;5060150;28;20216;-90
2022/12/14 07:50:27;;;;;;;25.50;10.50;;;-8.60;99.90;;;;;;5058134;28;20202;-91
2022/12/14 07:52:53;;;;;;;21.37;9.13;;;-8.70;99.90;;;;;;5076067;28;20173;-89
2022/12/14 07:55:18;;;;;;;19.73;10.00;;;-8.70;99.90;;;;;;5058148;28;20244;-89
2022/12/14 07:57:46;;;;;;;22.67;9.23;;;-8.70;99.90;;;;;;5057616;28;20181;-89
2022/12/14 08:00:13;;;;;;;21.60;9.43;;;-8.80;99.90;;;;;;5057565;28;20181;-89
2022/12/14 08:02:39;;;;;;;26.40;10.60;;;-8.80;99.90;;;;;;5076138;28;20227;-89
2022/12/14 08:05:05;;;;;;;18.47;9.63;;;-8.80;99.90;;;;;;5058284;28;20180;-89
2022/12/14 08:07:30;;;;;;;23.80;10.50;;;-8.70;99.90;;;;;;5053759;28;20616;-89
2022/12/14 08:09:56;;;;;;;21.57;9.17;;;-8.70;99.90;;;;;;5056947;28;20174;-90
2022/12/14 08:12:22;;;;;;;20.63;8.87;;;-8.60;99.90;;;;;;5057548;28;20176;-89
2022/12/14 08:14:48;;;;;;;21.40;9.17;;;-8.50;99.90;;;;;;5057569;28;20177;-89
2022/12/14 08:17:14;;;;;;;18.80;9.83;;;-8.50;99.90;;;;;;5059143;28;20224;-90
2022/12/14 08:19:39;;;;;;;16.93;9.50;;;-8.50;99.90;;;;;;5059530;28;20205;-90
2022/12/14 08:22:05;;;;;;;16.40;8.90;;;-8.40;99.90;;;;;;5058296;28;20212;-89
2022/12/14 08:24:31;;;;;;;20.90;10.23;;;-8.40;99.90;;;;;;5057785;28;20188;-89
2022/12/14 08:34:43;;;;;;;33.23;14.20;;;-8.20;99.90;;;;;;5073910;28;20191;-90
2022/12/14 08:40:35;;;;;;;21.70;10.57;;;-8.00;99.90;;;;;;5073147;28;20188;-85
2022/12/14 08:43:25;;;;;;;19.50;9.50;;;-7.90;99.90;;;;;;5060944;28;20207;-91
2022/12/14 08:53:16;;;;;;;22.07;11.20;;;-7.70;99.90;;;;;;5076191;28;20192;-90
2022/12/14 08:55:42;;;;;;;24.27;11.13;;;-7.70;99.90;;;;;;5065637;28;20243;-90
2022/12/14 08:58:08;;;;;;;22.73;10.57;;;-7.60;99.90;;;;;;5060673;28;20181;-92
2022/12/14 09:00:33;;;;;;;19.87;10.30;;;-7.60;99.90;;;;;;5064615;28;20181;-90
2022/12/14 09:02:59;;;;;;;21.70;10.00;;;-7.60;99.90;;;;;;5066564;28;20208;-91
2022/12/14 09:05:25;;;;;;;19.50;9.67;;;-7.40;99.90;;;;;;5076090;28;20165;-90
2022/12/14 09:07:51;;;;;;;17.83;9.77;;;-7.40;99.90;;;;;;5059318;28;20192;-90
2022/12/14 09:10:17;;;;;;;24.70;11.23;;;-7.30;99.90;;;;;;5055671;28;20516;-90
2022/12/14 09:12:42;;;;;;;20.40;10.57;;;-7.20;99.90;;;;;;5056221;28;20185;-90
2022/12/14 09:15:09;;;;;;;19.43;10.63;;;-7.20;99.90;;;;;;5074697;28;20651;-90
2022/12/14 09:17:38;;;;;;;20.07;10.40;;;-7.10;99.90;;;;;;5041479;28;20265;-90
2022/12/14 09:20:04;;;;;;;22.03;11.10;;;-7.10;99.90;;;;;;5030791;28;20179;-90
2022/12/14 09:22:30;;;;;;;21.63;10.70;;;-7.00;99.90;;;;;;5044562;28;20301;-89
2022/12/14 09:24:56;;;;;;;19.83;10.23;;;-7.00;99.90;;;;;;5050666;28;20245;-90
2022/12/14 09:27:22;;;;;;;17.60;9.17;;;-7.00;99.90;;;;;;5046312;28;20185;-89
2022/12/14 09:29:48;;;;;;;18.80;9.67;;;-6.90;99.90;;;;;;5052012;28;20186;-89
2022/12/14 09:32:14;;;;;;;18.80;9.77;;;-6.90;99.90;;;;;;5046287;28;20185;-91
2022/12/14 09:34:41;;;;;;;22.47;10.43;;;-6.90;99.90;;;;;;5047855;28;20199;-91
2022/12/14 09:37:07;;;;;;;21.33;10.03;;;-6.90;99.90;;;;;;5061481;28;20186;-90
2022/12/14 09:39:34;;;;;;;27.70;12.33;;;-6.90;99.90;;;;;;5062158;28;20651;-90
2022/12/14 09:42:31;;;;;;;23.50;11.50;;;-6.80;99.90;;;;;;5060380;28;20200;-90
2022/12/14 09:45:16;;;;;;;19.37;10.40;;;-6.80;99.90;;;;;;5057598;28;20173;-89
2022/12/14 09:48:01;;;;;;;18.20;9.40;;;-6.80;99.90;;;;;;5059429;28;20177;-90
2022/12/14 09:50:28;;;;;;;20.97;8.83;;;-6.80;99.90;;;;;;5077643;28;20243;-88
2022/12/14 09:52:59;;;;;;;42.73;18.37;;;-6.80;99.90;;;;;;5060014;28;20284;-89
2022/12/14 09:55:32;;;;;;;22.63;12.80;;;-6.80;99.90;;;;;;5077822;28;20166;-89
2022/12/14 09:58:25;;;;;;;16.67;9.80;;;-6.70;99.90;;;;;;5037608;28;20205;-90
2022/12/14 10:01:22;;;;;;;17.17;10.17;;;-6.70;99.90;;;;;;5052568;28;20668;-88
2022/12/14 10:04:40;;;;;;;19.60;10.70;;;-6.70;99.90;;;;;;5044471;28;20209;-92
2022/12/14 10:07:23;;;;;;;20.33;10.10;;;-6.70;99.90;;;;;;4979604;28;20239;-89
2022/12/14 10:10:43;;;;;;;21.33;10.83;;;-6.70;99.90;;;;;;5039213;28;20193;-88
2022/12/14 10:13:14;;;;;;;18.10;10.13;;;-6.70;99.90;;;;;;4983598;28;20180;-89
2022/12/14 10:16:15;;;;;;;19.90;10.10;;;-6.70;99.90;;;;;;5064167;28;20243;-89
2022/12/14 10:18:48;;;;;;;17.33;9.77;;;-6.70;99.90;;;;;;5077470;28;20253;-89
2022/12/14 10:21:18;;;;;;;20.97;11.17;;;-6.60;99.90;;;;;;5060077;28;20197;-89
2022/12/14 10:23:57;;;;;;;20.30;10.33;;;-6.60;99.90;;;;;;5060942;28;20613;-89
2022/12/14 10:26:29;;;;;;;22.03;10.87;;;-6.50;99.90;;;;;;5059797;28;20255;-89
2022/12/14 10:28:58;;;;;;;18.00;10.30;;;-6.50;99.90;;;;;;5059949;28;20566;-89
2022/12/14 10:31:43;;;;;;;16.20;10.33;;;-6.50;99.90;;;;;;5059991;28;20212;-89
2022/12/14 10:34:18;;;;;;;21.27;11.47;;;-6.50;99.90;;;;;;5059779;28;20178;-89
2022/12/14 10:37:01;;;;;;;23.83;11.23;;;-6.50;99.90;;;;;;5059733;28;20177;-89
2022/12/14 10:39:42;;;;;;;21.97;11.40;;;-6.50;99.90;;;;;;5074139;28;20176;-89
2022/12/14 10:42:32;;;;;;;27.27;10.90;;;-6.50;99.90;;;;;;5059645;28;20212;-89
2022/12/14 10:45:31;;;;;;;24.33;12.63;;;-6.50;99.90;;;;;;5059569;28;20181;-88
2022/12/14 10:48:12;;;;;;;29.10;14.43;;;-6.40;99.90;;;;;;5059414;28;20174;-89
2022/12/14 10:50:55;;;;;;;22.17;11.47;;;-6.30;99.90;;;;;;5058903;28;20166;-89
2022/12/14 10:53:32;;;;;;;29.07;15.23;;;-6.30;99.90;;;;;;5059905;28;20169;-89
2022/12/14 10:56:03;;;;;;;35.83;18.67;;;-6.30;99.90;;;;;;5073176;28;20180;-90
2022/12/14 10:58:29;;;;;;;22.90;12.50;;;-6.20;99.90;;;;;;5059307;28;20169;-91
2022/12/14 11:00:54;;;;;;;24.17;13.23;;;-6.20;99.90;;;;;;5059700;28;20231;-89
2022/12/14 11:03:20;;;;;;;27.23;14.07;;;-6.20;99.90;;;;;;5058838;28;20211;-90
2022/12/14 11:06:11;;;;;;;21.27;12.37;;;-6.20;99.90;;;;;;5076761;28;20178;-90
2022/12/14 11:08:43;;;;;;;26.80;11.67;;;-6.10;99.90;;;;;;5048085;28;20225;-91
2022/12/14 11:11:27;;;;;;;21.83;12.70;;;-6.00;99.90;;;;;;5054855;28;20174;-90
2022/12/14 11:14:06;;;;;;;25.50;13.53;;;-5.90;99.90;;;;;;5057566;28;20174;-92
2022/12/14 11:16:35;;;;;;;26.50;13.53;;;-5.80;99.90;;;;;;5058837;28;20190;-91
2022/12/14 11:19:03;;;;;;;21.83;12.53;;;-5.70;99.90;;;;;;5055449;28;20234;-91
2022/12/14 11:21:37;;;;;;;24.33;13.40;;;-5.60;99.90;;;;;;5055706;28;20179;-91
2022/12/14 11:24:04;;;;;;;26.23;12.93;;;-5.50;99.90;;;;;;5056551;28;20217;-91
2022/12/14 11:26:39;;;;;;;25.17;13.10;;;-5.40;99.90;;;;;;5055429;28;20183;-92
2022/12/14 11:29:15;;;;;;;24.27;13.10;;;-5.30;99.90;;;;;;5055555;28;20233;-91
2022/12/14 11:31:51;;;;;;;25.30;13.47;;;-5.20;99.90;;;;;;5054917;28;20187;-91
2022/12/14 11:34:39;;;;;;;31.33;15.23;;;-5.10;99.90;;;;;;5055202;28;20178;-91
2022/12/14 11:37:24;;;;;;;21.17;12.93;;;-4.90;99.90;;;;;;5055947;28;20219;-91
2022/12/14 11:39:56;;;;;;;22.93;12.80;;;-4.80;99.90;;;;;;5057205;28;20190;-92
2022/12/14 11:42:22;;;;;;;22.20;12.27;;;-4.70;99.90;;;;;;5055183;28;20717;-91
2022/12/14 11:44:49;;;;;;;23.07;12.00;;;-4.60;99.90;;;;;;5057454;28;20272;-93
2022/12/14 11:47:22;;;;;;;20.20;12.33;;;-4.50;99.90;;;;;;5054799;28;20233;-92
2022/12/14 11:49:56;;;;;;;28.63;12.43;;;-4.40;99.90;;;;;;5054686;28;20176;-92
2022/12/14 11:52:38;;;;;;;25.40;13.17;;;-4.40;99.90;;;;;;5054958;28;20178;-93
2022/12/14 11:55:14;;;;;;;29.70;13.80;;;-4.30;99.90;;;;;;5054759;28;20176;-93
2022/12/14 11:57:52;;;;;;;32.27;14.07;;;-4.20;99.90;;;;;;5054784;28;20169;-94
2022/12/14 12:00:27;;;;;;;29.90;13.60;;;-4.10;99.90;;;;;;5056096;28;20215;-93
2022/12/14 12:03:01;;;;;;;24.30;12.80;;;-4.00;99.90;;;;;;5056084;28;20220;-92
2022/12/14 12:05:32;;;;;;;28.20;12.70;;;-4.00;99.90;;;;;;5056079;28;20220;-94
2022/12/14 12:08:01;;;;;;;24.83;12.70;;;-3.90;99.90;;;;;;5055505;28;20178;-93
2022/12/14 12:10:44;;;;;;;23.43;11.60;;;-3.80;99.90;;;;;;5055344;28;20512;-93
2022/12/14 12:13:15;;;;;;;24.87;12.53;;;-3.80;99.90;;;;;;5056200;28;20666;-93
2022/12/14 12:15:48;;;;;;;22.60;12.07;;;-3.80;99.90;;;;;;5056233;28;20521;-92
2022/12/14 12:18:14;;;;;;;21.30;12.57;;;-3.80;99.90;;;;;;5069170;28;20281;-93
2022/12/14 12:20:45;;;;;;;25.60;13.47;;;-3.70;99.90;;;;;;5058285;28;20519;-93
2022/12/14 12:23:18;;;;;;;24.00;12.73;;;-3.70;99.90;;;;;;5059051;28;20261;-93
2022/12/14 12:25:47;;;;;;;21.10;12.20;;;-3.60;99.90;;;;;;5058800;28;20678;-94
2022/12/14 12:28:27;;;;;;;24.37;12.07;;;-3.60;99.90;;;;;;5058900;28;20268;-93
2022/12/14 12:31:01;;;;;;;23.43;13.10;;;-3.50;99.90;;;;;;5059306;28;20170;-93
2022/12/14 12:33:51;;;;;;;20.00;12.00;;;-3.50;99.90;;;;;;5058578;28;20621;-94
2022/12/14 12:36:19;;;;;;;25.10;13.90;;;-3.40;99.90;;;;;;5057643;28;20199;-93
2022/12/14 12:38:59;;;;;;;24.17;12.97;;;-3.40;99.90;;;;;;5057458;28;20209;-93
2022/12/14 12:41:36;;;;;;;24.13;13.63;;;-3.30;99.90;;;;;;5075271;28;20173;-93
2022/12/14 12:44:24;;;;;;;21.00;12.03;;;-3.20;99.90;;;;;;5075012;28;20249;-94
2022/12/14 12:47:27;;;;;;;25.03;12.73;;;-3.10;99.90;;;;;;5058655;28;20181;-94
2022/12/14 12:50:05;;;;;;;21.53;12.27;;;-3.10;99.90;;;;;;5058164;28;20295;-94
2022/12/14 12:52:48;;;;;;;24.27;12.87;;;-3.00;99.90;;;;;;5057607;28;20173;-94
2022/12/14 12:55:18;;;;;;;24.27;14.07;;;-2.90;99.90;;;;;;5056572;28;20247;-95
2022/12/14 12:57:48;;;;;;;26.17;13.10;;;-2.90;99.90;;;;;;5056898;28;20183;-94
2022/12/14 13:00:24;;;;;;;23.57;13.60;;;-2.90;99.90;;;;;;5057495;28;20182;-94
2022/12/14 13:03:25;;;;;;;24.03;13.27;;;-2.80;99.90;;;;;;5058204;28;20655;-93
2022/12/14 13:05:54;;;;;;;26.87;13.07;;;-2.70;99.90;;;;;;5039434;28;20219;-94
2022/12/14 13:08:22;;;;;;;24.90;13.10;;;-2.70;99.90;;;;;;5049418;28;20496;-94
2022/12/14 13:10:49;;;;;;;22.47;12.20;;;-2.60;99.90;;;;;;5074756;28;20166;-94
2022/12/14 13:13:20;;;;;;;22.87;13.73;;;-2.50;99.90;;;;;;5075252;28;20165;-93
2022/12/14 13:15:57;;;;;;;34.70;13.87;;;-2.40;99.90;;;;;;5059539;28;20261;-93
2022/12/14 13:18:36;;;;;;;28.90;13.93;;;-2.30;99.90;;;;;;5059257;28;20317;-93
2022/12/14 13:21:22;;;;;;;26.83;14.10;;;-2.30;99.90;;;;;;5058455;28;20592;-94
2022/12/14 13:23:48;;;;;;;26.17;14.90;;;-2.20;99.90;;;;;;5058764;28;20237;-95
2022/12/14 13:26:39;;;;;;;29.17;16.00;;;-2.20;99.90;;;;;;5075325;28;20179;-95
2022/12/14 13:29:26;;;;;;;29.57;14.37;;;-2.30;99.90;;;;;;5057209;28;20180;-95